Time;durP1;ratioP1;P1;durP2;ratioP2;P2;SDS_P1;SDS_P2;PMS_P1;PMS_P2;Temp;Humidity;BMP_temperature;BMP_pressure;BME280_temperature;BME280_humidity;BME280_pressure;Samples;Min_cycle;Max_cycle;Signal;HPM_P1;HPM_P2
2023/01/24 00:01:05;;;;;;;321.30;77.90;;;;;;;;;;5036245;28;20294;-73
2023/01/24 00:03:34;;;;;;;310.27;77.18;;;;;;;;;;5037358;28;20208;-73
2023/01/24 00:06:02;;;;;;;312.35;76.13;;;;;;;;;;5036983;28;20215;-73
2023/01/24 00:08:29;;;;;;;315.23;76.93;;;;;;;;;;5036351;28;20270;-73
2023/01/24 00:11:01;;;;;;;318.55;74.93;;;;;;;;;;5036610;28;20278;-73
2023/01/24 00:13:29;;;;;;;303.83;74.03;;;;;;;;;;5036607;28;20214;-73
2023/01/24 00:16:03;;;;;;;290.98;71.35;;;;;;;;;;5036926;28;20663;-74
2023/01/24 00:18:32;;;;;;;293.10;71.00;;;;;;;;;;5037115;28;20329;-74
2023/01/24 00:21:05;;;;;;;306.30;73.78;;;;;;;;;;5035582;28;20231;-73
2023/01/24 00:23:33;;;;;;;298.40;71.45;;;;;;;;;;5036465;28;20208;-73
2023/01/24 00:26:00;;;;;;;321.92;73.07;;;;;;;;;;5035911;28;20298;-73
2023/01/24 00:28:28;;;;;;;301.52;72.80;;;;;;;;;;5036389;28;20219;-73
2023/01/24 00:30:56;;;;;;;289.20;72.32;;;;;;;;;;5036028;28;20231;-73
2023/01/24 00:33:23;;;;;;;284.35;69.88;;;;;;;;;;5036523;28;20211;-74
2023/01/24 00:35:51;;;;;;;319.20;74.80;;;;;;;;;;5036172;28;20215;-73
2023/01/24 00:38:20;;;;;;;299.50;73.13;;;;;;;;;;5036351;28;20246;-73
2023/01/24 00:40:51;;;;;;;290.90;73.25;;;;;;;;;;5036030;28;20210;-74
2023/01/24 00:43:19;;;;;;;314.88;72.53;;;;;;;;;;5035512;28;20270;-74
2023/01/24 00:45:47;;;;;;;326.58;76.38;;;;;;;;;;5035989;28;20215;-73
2023/01/24 00:48:15;;;;;;;320.90;75.45;;;;;;;;;;5035697;28;20211;-74
2023/01/24 00:50:43;;;;;;;306.70;75.47;;;;;;;;;;5035702;28;20235;-74
2023/01/24 00:53:10;;;;;;;301.23;70.47;;;;;;;;;;5036202;28;20215;-74
2023/01/24 00:55:43;;;;;;;291.42;73.22;;;;;;;;;;5035961;28;20258;-74
2023/01/24 00:58:11;;;;;;;302.75;71.43;;;;;;;;;;5035965;28;20253;-73
2023/01/24 01:00:39;;;;;;;291.55;71.40;;;;;;;;;;5035589;28;20211;-74
2023/01/24 01:03:07;;;;;;;291.90;71.32;;;;;;;;;;5035883;28;20215;-73
2023/01/24 01:05:34;;;;;;;288.77;70.03;;;;;;;;;;5035482;28;20207;-73
2023/01/24 01:08:02;;;;;;;308.08;74.10;;;;;;;;;;5036270;28;20751;-73
2023/01/24 01:10:30;;;;;;;310.50;74.68;;;;;;;;;;5028450;28;20231;-73
2023/01/24 01:12:59;;;;;;;310.52;72.78;;;;;;;;;;5036077;28;20207;-73
2023/01/24 01:15:27;;;;;;;310.33;71.75;;;;;;;;;;5036377;28;20242;-73
2023/01/24 01:17:55;;;;;;;315.45;73.57;;;;;;;;;;5036364;28;20242;-73
2023/01/24 01:20:22;;;;;;;324.27;75.45;;;;;;;;;;5036013;28;20246;-74
2023/01/24 01:22:50;;;;;;;313.45;76.65;;;;;;;;;;5035809;28;20199;-72
2023/01/24 01:25:17;;;;;;;301.15;73.78;;;;;;;;;;5035814;28;20571;-73
2023/01/24 01:27:50;;;;;;;311.20;73.82;;;;;;;;;;5035806;28;20203;-74
2023/01/24 01:30:19;;;;;;;296.80;71.18;;;;;;;;;;5036080;28;20232;-73
2023/01/24 01:32:46;;;;;;;308.52;74.13;;;;;;;;;;5036051;28;20219;-73
2023/01/24 01:35:15;;;;;;;316.50;71.78;;;;;;;;;;5036027;28;20215;-74
2023/01/24 01:37:42;;;;;;;292.85;69.70;;;;;;;;;;5036235;28;20271;-74
2023/01/24 01:40:10;;;;;;;300.95;71.65;;;;;;;;;;5035865;28;20210;-73
2023/01/24 01:42:42;;;;;;;327.98;76.72;;;;;;;;;;5035703;28;20615;-73
2023/01/24 01:45:36;;;;;;;330.42;77.18;;;;;;;;;;5034884;28;20200;-73
2023/01/24 01:48:14;;;;;;;331.25;75.95;;;;;;;;;;5000593;28;20229;-73
2023/01/24 01:50:42;;;;;;;308.98;74.93;;;;;;;;;;5035820;28;20246;-74
2023/01/24 01:53:10;;;;;;;304.85;71.60;;;;;;;;;;5036224;28;20537;-73
2023/01/24 01:55:40;;;;;;;301.92;72.03;;;;;;;;;;5035950;28;20242;-74
2023/01/24 01:58:08;;;;;;;302.60;73.95;;;;;;;;;;5035889;28;20219;-73
2023/01/24 02:00:36;;;;;;;293.77;72.32;;;;;;;;;;5035854;28;20212;-74
2023/01/24 02:05:48;;;;;;;307.58;72.93;;;;;;;;;;5034740;28;20196;-73
2023/01/24 02:08:19;;;;;;;303.23;75.55;;;;;;;;;;5035983;28;20204;-73
2023/01/24 02:13:32;;;;;;;293.23;70.88;;;;;;;;;;5039401;28;20323;-73
2023/01/24 02:16:02;;;;;;;296.73;73.00;;;;;;;;;;5038902;28;20608;-73
2023/01/24 02:18:30;;;;;;;297.20;72.43;;;;;;;;;;5038623;28;20650;-73
2023/01/24 02:20:59;;;;;;;315.88;74.00;;;;;;;;;;5039775;28;20207;-73
2023/01/24 02:23:36;;;;;;;303.00;73.15;;;;;;;;;;5038870;28;20846;-73
2023/01/24 02:26:08;;;;;;;296.25;74.40;;;;;;;;;;5039696;28;20315;-73
2023/01/24 02:28:36;;;;;;;298.85;74.82;;;;;;;;;;5038887;28;20277;-73
2023/01/24 02:31:04;;;;;;;323.67;75.72;;;;;;;;;;5038497;28;20228;-73
2023/01/24 02:33:32;;;;;;;304.75;73.88;;;;;;;;;;5038051;28;20204;-73
2023/01/24 02:36:12;;;;;;;284.90;69.82;;;;;;;;;;5038810;28;20242;-73
2023/01/24 02:38:41;;;;;;;291.80;71.97;;;;;;;;;;5038916;28;20214;-73
2023/01/24 02:41:11;;;;;;;308.67;74.18;;;;;;;;;;5038108;28;20212;-73
2023/01/24 02:43:44;;;;;;;309.35;71.47;;;;;;;;;;5038966;28;20208;-73
2023/01/24 02:46:12;;;;;;;308.73;73.20;;;;;;;;;;5038757;28;20614;-73
2023/01/24 02:48:40;;;;;;;301.48;72.82;;;;;;;;;;5038503;28;20214;-73
2023/01/24 02:53:53;;;;;;;298.75;71.32;;;;;;;;;;5038084;28;20262;-72
2023/01/24 02:59:07;;;;;;;303.30;71.95;;;;;;;;;;5038713;28;20199;-73
2023/01/24 03:01:37;;;;;;;301.38;73.68;;;;;;;;;;5038158;28;20541;-73
2023/01/24 03:04:05;;;;;;;302.33;72.70;;;;;;;;;;5038456;28;20207;-73
2023/01/24 03:06:32;;;;;;;290.45;74.47;;;;;;;;;;5032659;28;20270;-73
2023/01/24 03:09:00;;;;;;;300.65;72.10;;;;;;;;;;5037808;28;20208;-73
2023/01/24 03:11:29;;;;;;;298.77;72.70;;;;;;;;;;5029460;28;20223;-73
2023/01/24 03:36:01;;;;;;;286.17;69.45;;;;;;;;;;5037388;28;20191;-73
2023/01/24 03:41:14;;;;;;;278.60;68.28;;;;;;;;;;5037428;28;20610;-73
2023/01/24 03:43:45;;;;;;;286.75;69.80;;;;;;;;;;5037537;28;20227;-73
2023/01/24 03:46:15;;;;;;;282.98;69.95;;;;;;;;;;5038020;28;20208;-73
2023/01/24 03:48:43;;;;;;;287.33;71.75;;;;;;;;;;5037718;28;20212;-73
2023/01/24 03:53:56;;;;;;;280.05;69.53;;;;;;;;;;5036837;28;20679;-73
2023/01/24 03:56:24;;;;;;;284.75;70.35;;;;;;;;;;5036928;28;20207;-73
2023/01/24 03:58:53;;;;;;;277.52;67.88;;;;;;;;;;5037183;28;20543;-73
2023/01/24 04:01:21;;;;;;;272.70;68.18;;;;;;;;;;5036935;28;20535;-73
2023/01/24 04:03:48;;;;;;;273.35;67.53;;;;;;;;;;5036701;28;20257;-73
2023/01/24 04:06:19;;;;;;;282.98;68.47;;;;;;;;;;5036663;28;20216;-73
2023/01/24 04:08:47;;;;;;;273.90;68.47;;;;;;;;;;5037243;28;20282;-73
2023/01/24 04:11:14;;;;;;;276.83;68.57;;;;;;;;;;5036631;28;20231;-73
2023/01/24 04:13:42;;;;;;;282.50;68.95;;;;;;;;;;5036999;28;20278;-73
2023/01/24 04:16:12;;;;;;;279.83;68.50;;;;;;;;;;5036690;28;20207;-73
2023/01/24 04:18:40;;;;;;;278.27;67.35;;;;;;;;;;5036364;28;20617;-73
2023/01/24 04:21:11;;;;;;;294.70;69.25;;;;;;;;;;5036610;28;20254;-74
2023/01/24 04:23:41;;;;;;;290.80;70.88;;;;;;;;;;5036757;28;20266;-74
2023/01/24 04:26:08;;;;;;;272.95;65.40;;;;;;;;;;5035664;28;20204;-74
2023/01/24 04:28:36;;;;;;;281.92;71.05;;;;;;;;;;5036309;28;20204;-74
2023/01/24 04:31:04;;;;;;;276.80;66.53;;;;;;;;;;5036590;28;20481;-73
2023/01/24 04:33:33;;;;;;;276.90;67.45;;;;;;;;;;5035422;28;20215;-74
2023/01/24 04:36:00;;;;;;;270.10;65.25;;;;;;;;;;5036834;28;20211;-73
2023/01/24 04:38:28;;;;;;;274.50;67.20;;;;;;;;;;5036094;28;20218;-74
2023/01/24 04:41:00;;;;;;;278.75;66.75;;;;;;;;;;5036180;28;20200;-74
2023/01/24 04:43:27;;;;;;;291.95;70.18;;;;;;;;;;5036095;28;20310;-73
2023/01/24 04:45:58;;;;;;;307.85;69.53;;;;;;;;;;5036015;28;20607;-73
2023/01/24 04:48:26;;;;;;;296.30;66.93;;;;;;;;;;5036942;28;20262;-74
2023/01/24 04:50:58;;;;;;;310.80;68.60;;;;;;;;;;5035641;28;20211;-74
2023/01/24 04:53:26;;;;;;;280.05;69.07;;;;;;;;;;5035968;28;20265;-74
2023/01/24 04:55:54;;;;;;;270.60;64.28;;;;;;;;;;5035768;28;20342;-74
2023/01/24 04:58:21;;;;;;;277.52;67.60;;;;;;;;;;5035838;28;20204;-73
2023/01/24 05:00:49;;;;;;;276.77;65.57;;;;;;;;;;5035425;28;20212;-74
2023/01/24 05:03:17;;;;;;;266.58;65.13;;;;;;;;;;5035802;28;20216;-73
2023/01/24 05:05:45;;;;;;;278.10;68.38;;;;;;;;;;5035607;28;20214;-73
2023/01/24 05:08:14;;;;;;;303.52;72.07;;;;;;;;;;5035490;28;20216;-74
2023/01/24 05:10:42;;;;;;;295.02;70.53;;;;;;;;;;5035446;28;20239;-73
2023/01/24 05:13:09;;;;;;;285.05;68.93;;;;;;;;;;5035320;28;20200;-73
2023/01/24 05:15:37;;;;;;;270.10;66.40;;;;;;;;;;5035424;28;20215;-74
2023/01/24 05:18:05;;;;;;;276.63;67.82;;;;;;;;;;5035951;28;20212;-74
2023/01/24 05:20:34;;;;;;;280.20;68.88;;;;;;;;;;5035512;28;20286;-73
2023/01/24 05:23:02;;;;;;;276.85;67.57;;;;;;;;;;5035558;28;20476;-74
2023/01/24 05:25:31;;;;;;;283.33;68.13;;;;;;;;;;5035895;28;20309;-74
2023/01/24 05:27:58;;;;;;;278.77;66.50;;;;;;;;;;5035534;28;20219;-73
2023/01/24 05:30:26;;;;;;;280.73;67.75;;;;;;;;;;5035567;28;20572;-74
2023/01/24 05:32:57;;;;;;;275.27;68.60;;;;;;;;;;5035027;28;20634;-73
2023/01/24 05:35:25;;;;;;;275.02;65.43;;;;;;;;;;5034596;28;20490;-73
2023/01/24 05:37:52;;;;;;;273.05;65.80;;;;;;;;;;5035736;28;20389;-73
2023/01/24 05:40:20;;;;;;;269.33;65.90;;;;;;;;;;5034667;28;20512;-73
2023/01/24 05:42:49;;;;;;;275.35;69.18;;;;;;;;;;5035423;28;20567;-73
2023/01/24 05:45:16;;;;;;;282.98;70.13;;;;;;;;;;5038055;28;20274;-73
2023/01/24 05:47:44;;;;;;;268.40;65.80;;;;;;;;;;5038895;28;20216;-73
2023/01/24 05:50:12;;;;;;;269.80;67.35;;;;;;;;;;5038837;28;20215;-73
2023/01/24 05:52:39;;;;;;;271.75;69.95;;;;;;;;;;5038553;28;20270;-73
2023/01/24 05:55:07;;;;;;;269.85;68.85;;;;;;;;;;5037585;28;20215;-73
2023/01/24 05:57:37;;;;;;;275.25;69.15;;;;;;;;;;5038918;28;20230;-73
2023/01/24 06:00:08;;;;;;;270.30;67.63;;;;;;;;;;5038262;28;20502;-73
2023/01/24 06:02:36;;;;;;;282.02;68.72;;;;;;;;;;5037929;28;20504;-75
2023/01/24 06:05:03;;;;;;;269.20;65.28;;;;;;;;;;5037728;28;20214;-73
2023/01/24 06:07:31;;;;;;;284.77;69.82;;;;;;;;;;5038853;28;20266;-73
2023/01/24 06:09:58;;;;;;;283.02;68.53;;;;;;;;;;5037423;28;20488;-73
2023/01/24 06:12:26;;;;;;;279.80;69.05;;;;;;;;;;5037992;28;20227;-73
2023/01/24 06:14:54;;;;;;;275.13;67.22;;;;;;;;;;5031815;28;20208;-74
2023/01/24 06:17:24;;;;;;;275.25;68.40;;;;;;;;;;5037295;28;21201;-74
2023/01/24 06:19:52;;;;;;;272.08;67.15;;;;;;;;;;5035973;28;20555;-73
2023/01/24 06:22:23;;;;;;;276.30;68.90;;;;;;;;;;5037363;28;20237;-73
2023/01/24 06:24:51;;;;;;;277.48;68.95;;;;;;;;;;5034693;28;20719;-73
2023/01/24 06:27:19;;;;;;;280.45;70.25;;;;;;;;;;5035305;28;20219;-73
2023/01/24 06:29:47;;;;;;;277.60;69.57;;;;;;;;;;5036707;28;20270;-73
2023/01/24 06:32:22;;;;;;;268.50;73.53;;;;;;;;;;5034379;28;20235;-73
2023/01/24 06:35:04;;;;;;;274.88;69.45;;;;;;;;;;5034810;28;20235;-74
2023/01/24 06:37:34;;;;;;;287.08;70.90;;;;;;;;;;5027846;28;20208;-74
2023/01/24 06:40:02;;;;;;;286.38;72.95;;;;;;;;;;5024494;28;20609;-74
2023/01/24 06:42:30;;;;;;;284.75;72.18;;;;;;;;;;5018249;28;20421;-74
2023/01/24 06:44:58;;;;;;;278.02;69.75;;;;;;;;;;5034209;28;20216;-71
2023/01/24 06:47:27;;;;;;;271.52;69.10;;;;;;;;;;5016049;28;20219;-74
2023/01/24 06:49:55;;;;;;;282.98;70.70;;;;;;;;;;5015599;28;20208;-74
2023/01/24 06:52:25;;;;;;;283.77;70.50;;;;;;;;;;5022273;28;20225;-74
2023/01/24 06:54:53;;;;;;;285.75;72.38;;;;;;;;;;5028531;28;20203;-72
2023/01/24 06:57:21;;;;;;;293.38;78.78;;;;;;;;;;5036024;28;20226;-74
2023/01/24 06:59:52;;;;;;;291.35;73.75;;;;;;;;;;5033720;28;20214;-74
2023/01/24 07:02:20;;;;;;;290.15;75.75;;;;;;;;;;5033284;28;20196;-74
2023/01/24 07:04:47;;;;;;;281.45;69.05;;;;;;;;;;5033765;28;20728;-74
2023/01/24 07:07:15;;;;;;;294.23;73.50;;;;;;;;;;5034273;28;20212;-74
2023/01/24 07:09:44;;;;;;;284.35;70.10;;;;;;;;;;5035722;28;20207;-73
2023/01/24 07:12:11;;;;;;;285.13;71.30;;;;;;;;;;5029822;28;20494;-74
2023/01/24 07:14:39;;;;;;;284.65;72.63;;;;;;;;;;5024937;28;20234;-74
2023/01/24 07:17:07;;;;;;;283.80;68.97;;;;;;;;;;5034117;28;20595;-74
2023/01/24 07:19:35;;;;;;;291.05;71.75;;;;;;;;;;5033736;28;20547;-74
2023/01/24 07:22:03;;;;;;;290.77;72.72;;;;;;;;;;5032413;28;20196;-74
2023/01/24 07:24:31;;;;;;;284.48;71.93;;;;;;;;;;5033662;28;20278;-73
2023/01/24 07:27:03;;;;;;;279.98;71.25;;;;;;;;;;5032895;28;20211;-73
2023/01/24 07:29:36;;;;;;;278.50;69.57;;;;;;;;;;5025555;28;20219;-73
2023/01/24 07:32:08;;;;;;;286.63;70.97;;;;;;;;;;5034967;28;20599;-74
2023/01/24 07:34:36;;;;;;;283.20;73.40;;;;;;;;;;5033934;28;20204;-73
2023/01/24 07:37:04;;;;;;;286.27;69.50;;;;;;;;;;5034764;28;20215;-74
2023/01/24 07:39:32;;;;;;;284.75;74.25;;;;;;;;;;5034298;28;20511;-74
2023/01/24 07:42:01;;;;;;;287.58;71.78;;;;;;;;;;5033794;28;20204;-74
2023/01/24 07:44:28;;;;;;;293.85;77.65;;;;;;;;;;5028222;28;20670;-73
2023/01/24 07:46:57;;;;;;;290.50;73.97;;;;;;;;;;5034511;28;20503;-71
2023/01/24 07:49:27;;;;;;;287.52;72.05;;;;;;;;;;5032313;28;20211;-73
2023/01/24 07:51:58;;;;;;;282.17;74.70;;;;;;;;;;5032525;28;20270;-73
2023/01/24 07:54:28;;;;;;;263.88;69.30;;;;;;;;;;5029575;28;20196;-73
2023/01/24 07:57:05;;;;;;;267.08;76.55;;;;;;;;;;5033114;28;20262;-72
2023/01/24 07:59:36;;;;;;;279.70;74.03;;;;;;;;;;5033871;28;20211;-73
2023/01/24 08:02:25;;;;;;;283.60;75.40;;;;;;;;;;5027411;28;20225;-73
2023/01/24 08:04:56;;;;;;;290.80;72.70;;;;;;;;;;5030876;28;20199;-73
2023/01/24 08:07:25;;;;;;;273.88;70.32;;;;;;;;;;5033669;28;20574;-73
2023/01/24 08:09:56;;;;;;;283.25;72.97;;;;;;;;;;5028312;28;20238;-73
2023/01/24 08:12:27;;;;;;;283.55;76.97;;;;;;;;;;5026228;28;20318;-73
2023/01/24 08:14:59;;;;;;;282.92;72.60;;;;;;;;;;5025847;28;20214;-73
2023/01/24 08:17:33;;;;;;;283.35;70.55;;;;;;;;;;5028036;28;20451;-72
2023/01/24 08:20:04;;;;;;;294.63;80.55;;;;;;;;;;5024500;28;20246;-73
2023/01/24 08:22:36;;;;;;;280.55;73.57;;;;;;;;;;5027316;28;20298;-72
2023/01/24 08:25:04;;;;;;;279.38;72.32;;;;;;;;;;5022443;28;20609;-72
2023/01/24 08:27:36;;;;;;;293.13;76.05;;;;;;;;;;5034006;28;20211;-73
2023/01/24 08:30:07;;;;;;;292.13;75.90;;;;;;;;;;5028684;28;20238;-73
2023/01/24 08:32:36;;;;;;;291.48;77.55;;;;;;;;;;5031888;28;20231;-73
2023/01/24 08:35:04;;;;;;;281.23;72.82;;;;;;;;;;5024456;28;20225;-72
2023/01/24 08:37:33;;;;;;;291.40;77.30;;;;;;;;;;5032320;28;20469;-73
2023/01/24 08:40:00;;;;;;;285.75;77.88;;;;;;;;;;5034561;28;20207;-72
2023/01/24 08:42:28;;;;;;;284.25;72.30;;;;;;;;;;5027544;28;20212;-72
2023/01/24 08:44:57;;;;;;;287.25;74.65;;;;;;;;;;5028829;28;20603;-73
2023/01/24 08:47:26;;;;;;;291.13;70.75;;;;;;;;;;5029512;28;20204;-73
2023/01/24 08:49:55;;;;;;;288.67;70.43;;;;;;;;;;5028844;28;20616;-73
2023/01/24 08:52:23;;;;;;;294.95;71.78;;;;;;;;;;5026620;28;20560;-72
2023/01/24 08:54:58;;;;;;;294.15;74.70;;;;;;;;;;5022692;28;20251;-72
2023/01/24 08:57:31;;;;;;;297.75;76.82;;;;;;;;;;5029525;28;20290;-72
2023/01/24 09:00:02;;;;;;;293.90;79.00;;;;;;;;;;5024391;28;20212;-72
2023/01/24 09:02:45;;;;;;;297.20;75.95;;;;;;;;;;5014829;28;20204;-72
2023/01/24 09:05:13;;;;;;;288.00;71.45;;;;;;;;;;5006286;28;20219;-72
2023/01/24 09:07:44;;;;;;;287.42;70.57;;;;;;;;;;5012152;28;20216;-73
2023/01/24 09:10:25;;;;;;;286.70;71.18;;;;;;;;;;5019678;28;20212;-74
2023/01/24 09:12:52;;;;;;;287.02;76.40;;;;;;;;;;5028031;28;20235;-74
2023/01/24 09:15:23;;;;;;;284.40;71.90;;;;;;;;;;5032200;28;20501;-74
2023/01/24 09:17:52;;;;;;;285.50;73.22;;;;;;;;;;5030586;28;20208;-75
2023/01/24 09:20:43;;;;;;;293.17;77.18;;;;;;;;;;5033766;28;20650;-72
2023/01/24 09:23:14;;;;;;;292.02;72.95;;;;;;;;;;5028591;28;20500;-74
2023/01/24 09:26:03;;;;;;;289.88;73.28;;;;;;;;;;5025721;28;20219;-75
2023/01/24 09:28:36;;;;;;;300.70;76.45;;;;;;;;;;5033266;28;20298;-73
2023/01/24 09:31:09;;;;;;;288.15;74.65;;;;;;;;;;5033750;28;20768;-73
2023/01/24 09:33:45;;;;;;;309.85;74.65;;;;;;;;;;5035808;28;20231;-72
2023/01/24 09:36:18;;;;;;;299.02;76.32;;;;;;;;;;5030920;28;20211;-72
2023/01/24 09:38:47;;;;;;;294.55;73.15;;;;;;;;;;5027340;28;20212;-72
2023/01/24 09:41:19;;;;;;;303.90;82.00;;;;;;;;;;5035106;28;20208;-72
2023/01/24 09:43:50;;;;;;;284.63;77.47;;;;;;;;;;5033263;28;20208;-72
2023/01/24 09:46:24;;;;;;;278.67;75.13;;;;;;;;;;5019224;28;20239;-73
2023/01/24 09:49:01;;;;;;;270.02;73.20;;;;;;;;;;5017217;28;20632;-73
2023/01/24 09:51:31;;;;;;;337.98;80.88;;;;;;;;;;5026586;28;20455;-72
2023/01/24 09:54:01;;;;;;;327.73;76.78;;;;;;;;;;5036407;28;20231;-75
2023/01/24 09:56:34;;;;;;;328.52;82.18;;;;;;;;;;5027941;28;20210;-72
2023/01/24 09:59:14;;;;;;;324.48;76.63;;;;;;;;;;5026568;28;20335;-73
2023/01/24 10:01:42;;;;;;;284.05;74.05;;;;;;;;;;5038227;28;20211;-72
2023/01/24 10:04:21;;;;;;;300.13;75.78;;;;;;;;;;5032362;28;20273;-72
2023/01/24 10:07:04;;;;;;;300.38;77.25;;;;;;;;;;5028927;28;20638;-72
2023/01/24 10:09:37;;;;;;;300.17;79.07;;;;;;;;;;5017670;28;20696;-71
2023/01/24 10:12:22;;;;;;;273.63;78.88;;;;;;;;;;5018838;28;20211;-72
2023/01/24 10:14:55;;;;;;;276.55;73.70;;;;;;;;;;5028220;28;20227;-72
2023/01/24 10:17:30;;;;;;;269.98;76.78;;;;;;;;;;5033729;28;20266;-72
2023/01/24 10:20:22;;;;;;;262.17;65.57;;;;;;;;;;5051033;28;20213;-72
2023/01/24 10:23:11;;;;;;;276.58;71.40;;;;;;;;;;5033151;28;20242;-72
2023/01/24 10:28:41;;;;;;;259.20;67.63;;;;;;;;;;5032842;28;20208;-72
2023/01/24 10:31:14;;;;;;;268.50;70.75;;;;;;;;;;5033177;28;20239;-72
2023/01/24 10:33:50;;;;;;;279.23;71.43;;;;;;;;;;5033962;28;20259;-72
2023/01/24 10:36:39;;;;;;;279.27;75.45;;;;;;;;;;5029765;28;20611;-72
2023/01/24 10:39:12;;;;;;;300.23;81.07;;;;;;;;;;5018361;28;20204;-72
2023/01/24 10:41:42;;;;;;;296.65;77.43;;;;;;;;;;5028160;28;20208;-73
2023/01/24 10:44:16;;;;;;;267.23;70.93;;;;;;;;;;5028990;28;20500;-73
2023/01/24 10:47:07;;;;;;;279.08;83.70;;;;;;;;;;5032013;28;20507;-73
2023/01/24 10:49:57;;;;;;;259.75;71.63;;;;;;;;;;5028051;28;20212;-72
2023/01/24 10:52:26;;;;;;;266.65;72.80;;;;;;;;;;5027651;28;20248;-73
2023/01/24 10:54:55;;;;;;;275.80;78.57;;;;;;;;;;5019076;28;20593;-73
2023/01/24 10:57:32;;;;;;;270.23;77.55;;;;;;;;;;5016534;28;20281;-73
2023/01/24 11:00:19;;;;;;;254.43;70.45;;;;;;;;;;5026580;28;20298;-73
2023/01/24 11:02:55;;;;;;;316.13;84.65;;;;;;;;;;5030204;28;20239;-73
2023/01/24 11:05:41;;;;;;;313.02;79.53;;;;;;;;;;5035204;28;20222;-73
2023/01/24 11:08:28;;;;;;;279.30;74.72;;;;;;;;;;5032203;28;20211;-73
2023/01/24 11:11:01;;;;;;;275.08;73.95;;;;;;;;;;5031449;28;20261;-73
2023/01/24 11:13:52;;;;;;;265.77;73.55;;;;;;;;;;5017326;28;20326;-72
2023/01/24 11:16:42;;;;;;;267.75;74.90;;;;;;;;;;5024578;28;20214;-73
2023/01/24 11:19:25;;;;;;;264.02;75.95;;;;;;;;;;5031870;28;20199;-73
2023/01/24 11:22:00;;;;;;;269.65;78.30;;;;;;;;;;5033441;28;20203;-73
2023/01/24 11:24:49;;;;;;;256.85;73.72;;;;;;;;;;5034422;28;20217;-73
2023/01/24 11:27:41;;;;;;;259.65;79.47;;;;;;;;;;5036233;28;20246;-74
2023/01/24 11:30:19;;;;;;;267.50;79.43;;;;;;;;;;5036175;28;20652;-73
2023/01/24 11:33:34;;;;;;;266.80;83.45;;;;;;;;;;5033137;28;20216;-73
2023/01/24 11:36:12;;;;;;;263.23;70.78;;;;;;;;;;5007978;28;20269;-72
2023/01/24 11:39:07;;;;;;;260.63;71.50;;;;;;;;;;5019843;28;20615;-73
2023/01/24 11:44:44;;;;;;;262.70;73.05;;;;;;;;;;5023967;28;20302;-74
2023/01/24 11:47:16;;;;;;;297.10;104.85;;;;;;;;;;5032826;28;20663;-73
2023/01/24 11:49:52;;;;;;;270.45;72.70;;;;;;;;;;5030366;28;20208;-72
2023/01/24 11:52:39;;;;;;;273.48;75.60;;;;;;;;;;5028580;28;20597;-72
2023/01/24 11:55:14;;;;;;;298.55;75.90;;;;;;;;;;5030998;28;20228;-73
2023/01/24 11:57:51;;;;;;;294.10;76.25;;;;;;;;;;5028838;28;20218;-73
2023/01/24 12:00:35;;;;;;;281.30;83.15;;;;;;;;;;5033221;28;20271;-72
2023/01/24 12:03:31;;;;;;;298.73;89.50;;;;;;;;;;5034768;28;20697;-73
2023/01/24 12:09:20;;;;;;;276.75;78.45;;;;;;;;;;5035302;28;20605;-74
2023/01/24 12:11:57;;;;;;;261.00;73.90;;;;;;;;;;5034576;28;20370;-74
2023/01/24 12:14:36;;;;;;;270.00;71.75;;;;;;;;;;5035343;28;20265;-74
2023/01/24 12:17:09;;;;;;;268.02;72.82;;;;;;;;;;5035695;28;20207;-74
2023/01/24 12:19:44;;;;;;;273.65;73.35;;;;;;;;;;5035506;28;20210;-74
2023/01/24 12:22:14;;;;;;;279.95;74.90;;;;;;;;;;5035106;28;20750;-74
2023/01/24 12:24:51;;;;;;;290.70;84.57;;;;;;;;;;5036048;28;20216;-74
2023/01/24 12:27:29;;;;;;;294.08;75.72;;;;;;;;;;5017954;28;20395;-72
2023/01/24 12:30:03;;;;;;;269.58;73.88;;;;;;;;;;5015824;28;20211;-73
2023/01/24 12:32:38;;;;;;;326.60;77.95;;;;;;;;;;5015359;28;20211;-73
2023/01/24 12:35:21;;;;;;;326.73;79.97;;;;;;;;;;5024982;28;20615;-73
2023/01/24 12:37:57;;;;;;;327.25;76.07;;;;;;;;;;5034632;28;20246;-74
2023/01/24 12:40:34;;;;;;;328.95;78.00;;;;;;;;;;5032501;28;20512;-71
2023/01/24 12:43:12;;;;;;;322.05;75.47;;;;;;;;;;5033799;28;20206;-72
2023/01/24 12:45:58;;;;;;;322.40;74.55;;;;;;;;;;5035577;28;20219;-74
2023/01/24 12:48:45;;;;;;;320.40;76.38;;;;;;;;;;5024476;28;20211;-74
2023/01/24 12:51:32;;;;;;;305.25;73.53;;;;;;;;;;5032132;28;20216;-74
2023/01/24 12:54:08;;;;;;;322.83;78.32;;;;;;;;;;5030091;28;20223;-74
2023/01/24 12:56:58;;;;;;;319.58;81.88;;;;;;;;;;5014174;28;20208;-72
2023/01/24 12:59:33;;;;;;;324.52;78.72;;;;;;;;;;5019418;28;20207;-73
2023/01/24 13:05:10;;;;;;;317.38;79.90;;;;;;;;;;5009110;28;20595;-73
2023/01/24 13:07:48;;;;;;;328.52;83.18;;;;;;;;;;5031727;28;20199;-73
2023/01/24 13:10:41;;;;;;;319.83;79.85;;;;;;;;;;5013496;28;20211;-74
2023/01/24 13:13:15;;;;;;;321.52;75.25;;;;;;;;;;5023397;28;20286;-74
2023/01/24 13:16:12;;;;;;;322.00;78.10;;;;;;;;;;5008854;28;20686;-73
2023/01/24 13:19:05;;;;;;;311.88;77.75;;;;;;;;;;5026250;28;20692;-73
2023/01/24 13:21:57;;;;;;;322.23;82.60;;;;;;;;;;5029709;28;20211;-74
2023/01/24 13:24:36;;;;;;;307.90;74.85;;;;;;;;;;5033508;28;20208;-74
2023/01/24 13:27:20;;;;;;;320.33;78.68;;;;;;;;;;5024976;28;20203;-73
2023/01/24 13:29:54;;;;;;;317.73;77.60;;;;;;;;;;5041892;28;20225;-73
2023/01/24 13:32:38;;;;;;;318.92;81.93;;;;;;;;;;5028234;28;20217;-73
2023/01/24 13:35:26;;;;;;;323.20;78.38;;;;;;;;;;5022776;28;20231;-73
2023/01/24 13:41:21;;;;;;;317.00;83.22;;;;;;;;;;5034219;28;20207;-74
2023/01/24 13:44:15;;;;;;;303.92;77.07;;;;;;;;;;5016552;28;20212;-74
2023/01/24 13:50:11;;;;;;;317.20;78.60;;;;;;;;;;5018927;28;20203;-73
2023/01/24 13:53:06;;;;;;;327.05;84.60;;;;;;;;;;5001688;28;20201;-74
2023/01/24 13:55:59;;;;;;;273.08;73.57;;;;;;;;;;5014093;28;20326;-73
2023/01/24 14:01:48;;;;;;;259.35;73.88;;;;;;;;;;5020739;28;20299;-72
2023/01/24 14:04:52;;;;;;;;;;;;;;;;;;;;;
2023/01/24 14:07:20;;;;;;;275.58;78.03;;;;;;;;;;5023955;28;20274;-73
2023/01/24 14:09:48;;;;;;;256.63;74.38;;;;;;;;;;5022685;28;20207;-74
2023/01/24 14:12:19;;;;;;;298.20;81.10;;;;;;;;;;5022543;28;20585;-73
2023/01/24 14:15:15;;;;;;;268.35;72.53;;;;;;;;;;5034278;28;20648;-72
2023/01/24 14:17:56;;;;;;;273.52;82.55;;;;;;;;;;5031721;28;20216;-74
2023/01/24 14:20:31;;;;;;;278.27;74.43;;;;;;;;;;5038179;28;20220;-73
2023/01/24 14:23:14;;;;;;;284.08;73.68;;;;;;;;;;5033119;28;20509;-73
2023/01/24 14:26:05;;;;;;;293.40;75.10;;;;;;;;;;5033644;28;20611;-73
2023/01/24 14:28:42;;;;;;;301.60;78.25;;;;;;;;;;5035179;28;20257;-73
2023/01/24 14:31:20;;;;;;;290.40;75.63;;;;;;;;;;5019269;28;20215;-74
2023/01/24 14:33:53;;;;;;;266.38;77.40;;;;;;;;;;5049480;28;20301;-73
2023/01/24 14:39:23;;;;;;;260.02;74.22;;;;;;;;;;5015362;28;20212;-73
2023/01/24 14:41:52;;;;;;;261.35;71.38;;;;;;;;;;5047216;28;20245;-73
2023/01/24 14:44:23;;;;;;;253.68;72.22;;;;;;;;;;5044274;28;20196;-74
2023/01/24 14:46:57;;;;;;;268.85;81.95;;;;;;;;;;5015495;28;20219;-73
2023/01/24 14:49:34;;;;;;;266.10;71.82;;;;;;;;;;5030266;28;20491;-74
2023/01/24 14:52:05;;;;;;;272.05;72.75;;;;;;;;;;5034904;28;20273;-73
2023/01/24 14:54:47;;;;;;;264.02;70.13;;;;;;;;;;5035201;28;20297;-74
2023/01/24 15:00:22;;;;;;;253.50;76.32;;;;;;;;;;5046617;28;20221;-74
2023/01/24 15:02:55;;;;;;;252.85;70.97;;;;;;;;;;5029905;28;20338;-73
2023/01/24 15:05:31;;;;;;;257.92;71.68;;;;;;;;;;5035980;28;20226;-74
2023/01/24 15:07:59;;;;;;;253.32;72.40;;;;;;;;;;5030921;28;20262;-72
2023/01/24 15:10:32;;;;;;;253.43;71.25;;;;;;;;;;5033764;28;20212;-74
2023/01/24 15:13:02;;;;;;;259.52;72.20;;;;;;;;;;5036403;28;20204;-72
2023/01/24 15:15:39;;;;;;;247.45;72.43;;;;;;;;;;5032483;28;20243;-72
2023/01/24 15:18:09;;;;;;;263.35;75.30;;;;;;;;;;5016774;28;20200;-72
2023/01/24 15:20:52;;;;;;;314.10;78.97;;;;;;;;;;5026376;28;20277;-74
2023/01/24 15:23:31;;;;;;;292.13;77.10;;;;;;;;;;5030916;28;20619;-72
2023/01/24 15:26:05;;;;;;;288.85;84.68;;;;;;;;;;5035366;28;20274;-73
2023/01/24 15:28:33;;;;;;;256.65;76.57;;;;;;;;;;5038731;28;20202;-73
2023/01/24 15:31:12;;;;;;;277.15;78.45;;;;;;;;;;5031013;28;20626;-74
2023/01/24 15:33:41;;;;;;;264.55;73.47;;;;;;;;;;5032908;28;20207;-73
2023/01/24 15:39:16;;;;;;;254.70;75.78;;;;;;;;;;5035040;28;20215;-74
2023/01/24 15:44:32;;;;;;;244.35;67.07;;;;;;;;;;5009030;28;20294;-74
2023/01/24 15:49:58;;;;;;;259.00;76.28;;;;;;;;;;5028953;28;20720;-74
2023/01/24 15:52:27;;;;;;;267.38;75.13;;;;;;;;;;5024754;28;20220;-74
2023/01/24 15:55:12;;;;;;;264.92;75.20;;;;;;;;;;5020759;28;20238;-74